Isle Royale National Park, MI

5:36 AM EST on February 07, 2016 (GMT -0500)
Shopko Heights | | Change Station
CLOSE
Current Station
Personal Weather Station
Location: Houghton, MI
Elevation: 910 ft
Nearby Weather Stations

Elev 910 ft 47.12 °N, 88.59 °W | Updated 11 seconds ago

Overcast
Overcast
30.0 °F
Feels Like 22 °F
N
7.9
Wind Variable Wind from SW
Gusts 7.9 mph

Today
High -- | Low -- °F
--% Chance of Precip.
Yesterday
High -- | Low -- °F
Precip. -- in
Pressure 29.58 in
Visibility 3.0 miles
Clouds Overcast 200 ft
Windchill 22 °F
Dew Point 29 °F
Humidity 95%
Rainfall 0.00 in
Snow Depth Not available.
8:11 AM 6:05 PM
Waning Crescent, 2% visible
SPECI KCMX 071020Z AUTO 18007KT 3SM BR OVC002 M01/M02 A2958 RMK AO2 SNE0957 P0000 T10111022 TSNO
Pressure 29.58 in
Visibility 3.0 miles
Clouds Overcast 200 ft
Windchill 22 °F
Dew Point 29 °F
Humidity 95%
Rainfall 0.00 in
Snow Depth Not available.
8:11 AM 6:05 PM
Waning Crescent, 2% visible
SPECI KCMX 071020Z AUTO 18007KT 3SM BR OVC002 M01/M02 A2958 RMK AO2 SNE0957 P0000 T10111022 TSNO

10-Day Weather Forecast

Almanac

Astronomy

Feb. 07, 2016 Rise Set
Actual Time
Civil Twilight
Nautical Twilight
Astronomical Twilight
Moon
Length of Visible Light
Length of Day
Tomorrow will be .
, % of the Moon is Illuminated

Today's Extremes

State Highs State Lows

Community

WunderPhotos

Upload Photos

1,891,171 photos uploaded!

WunderBlog® & News

Nearby

Air Quality

  Air Quality AQ Index Pollutant
Not available.

Snow Depth

Station Depth Elevation

Earthquake Activity

City Distance Mag. Time & Date
Minimum magnitude displayed is 2.5.

Coastal Water Temperatures

Place Temperature

Stations

Nearby Weather Stations

Station Location Temp. Windchill Dew Point Humidity Wind Precip. Elev Updated Type
                   

Watches & Warnings

There are currently no watches in effect.